Flatwoods, Tennessee
Current Conditions -  °F | °C
As of 6:15 AM on Tuesday 27 Jan 2015 (Local Time) from KPVE Reporting Station
Broken Clouds Broken Clouds  
Wind Chill: 30°   Ceiling: 5000
Heat Index: 36°   Visibility: 10mi
Dew Point: 30°   Wind: 7mph
Humidity: 81%   Direction: 310°NW
Pressure: 29.95"   Gusts: NA
Location:  35.5798°N, 87.8504°W
Report Text: KPVE 271215Z AUTO 31006KT 10SM BKN050 02/M01 A2995 RMK
Loading
Personal Weather Stations






























Interactive Weather Map New forecast layout! Learn more

10-Day Weather Forecast

Advertisements
Track Severe Weather on mobile